Time;durP1;ratioP1;P1;durP2;ratioP2;P2;SDS_P1;SDS_P2;PMS_P1;PMS_P2;Temp;Humidity;BMP_temperature;BMP_pressure;BME280_temperature;BME280_humidity;BME280_pressure;Samples;Min_cycle;Max_cycle;Signal;HPM_P1;HPM_P2
2022/06/03 00:00:00;;;;;;;4.35;1.70;;;12.50;99.90;;;;;;5090767;28;20114;-45
2022/06/03 00:02:47;;;;;;;2.58;1.77;;;12.40;99.90;;;;;;5085386;28;20032;-45
2022/06/03 00:05:34;;;;;;;4.15;2.47;;;12.40;99.90;;;;;;5083135;28;20035;-46
2022/06/03 00:08:03;;;;;;;2.88;1.55;;;12.40;99.90;;;;;;5072019;28;20097;-45
2022/06/03 00:10:34;;;;;;;4.07;2.13;;;12.30;99.90;;;;;;5073691;28;20336;-46
2022/06/03 00:13:15;;;;;;;3.47;1.98;;;12.30;99.90;;;;;;5072263;28;20051;-46
2022/06/03 00:16:05;;;;;;;3.97;1.75;;;12.30;99.90;;;;;;5076767;28;20048;-45
2022/06/03 00:18:53;;;;;;;4.85;1.65;;;12.20;99.90;;;;;;5079907;28;20028;-45
2022/06/03 00:21:56;;;;;;;3.10;1.52;;;12.20;99.90;;;;;;5085237;28;20043;-46
2022/06/03 00:24:26;;;;;;;3.22;1.58;;;12.10;99.90;;;;;;5090996;28;20044;-48
2022/06/03 00:27:08;;;;;;;4.10;1.83;;;12.10;99.90;;;;;;5089907;28;20055;-45
2022/06/03 00:29:43;;;;;;;4.00;1.88;;;12.10;99.90;;;;;;5076709;28;20051;-50
2022/06/03 00:32:29;;;;;;;6.40;2.35;;;12.10;99.90;;;;;;5070130;28;20079;-46
2022/06/03 00:35:33;;;;;;;2.97;1.95;;;12.00;99.90;;;;;;5082419;28;20044;-45
2022/06/03 00:38:29;;;;;;;4.18;2.13;;;12.00;99.90;;;;;;5091544;28;20071;-45
2022/06/03 00:41:05;;;;;;;4.55;2.00;;;12.00;99.90;;;;;;5071147;28;20032;-46
2022/06/03 00:43:34;;;;;;;1.95;1.67;;;12.00;99.90;;;;;;5069940;28;20083;-45
2022/06/03 00:46:32;;;;;;;4.93;2.72;;;11.90;99.90;;;;;;5070868;28;20047;-48
2022/06/03 00:49:32;;;;;;;6.25;1.83;;;11.90;99.90;;;;;;5071721;28;20094;-46
2022/06/03 00:52:22;;;;;;;12.73;1.73;;;11.90;99.90;;;;;;5090000;28;20036;-45
2022/06/03 00:55:25;;;;;;;6.78;1.65;;;11.90;99.90;;;;;;5089958;28;20119;-45
2022/06/03 00:57:51;;;;;;;2.33;1.73;;;11.90;99.90;;;;;;5090864;28;20054;-48
2022/06/03 01:00:29;;;;;;;4.83;1.50;;;11.80;99.90;;;;;;5089277;28;20501;-46
2022/06/03 01:03:15;;;;;;;5.90;2.65;;;11.80;99.90;;;;;;5082381;28;20135;-45
2022/06/03 01:06:05;;;;;;;6.78;2.83;;;11.70;99.90;;;;;;5090605;28;20028;-45
2022/06/03 01:09:00;;;;;;;4.03;1.42;;;11.70;99.90;;;;;;5090733;28;20035;-45
2022/06/03 01:11:52;;;;;;;3.63;1.35;;;11.70;99.90;;;;;;5076639;28;20036;-46
2022/06/03 01:14:59;;;;;;;2.55;1.90;;;11.70;99.90;;;;;;5069745;28;20048;-45
2022/06/03 01:17:38;;;;;;;3.72;1.73;;;11.60;99.90;;;;;;5070260;28;20051;-45
2022/06/03 01:20:12;;;;;;;2.53;1.70;;;11.60;99.90;;;;;;5070267;28;20493;-46
2022/06/03 01:23:10;;;;;;;4.28;2.10;;;11.50;99.90;;;;;;5069828;28;20045;-45
2022/06/03 01:26:11;;;;;;;2.88;1.92;;;11.50;99.90;;;;;;5070091;28;20383;-45
2022/06/03 01:28:37;;;;;;;3.92;2.13;;;11.50;99.90;;;;;;5084468;28;20040;-45
2022/06/03 01:31:24;;;;;;;4.00;3.10;;;11.50;99.90;;;;;;5083325;28;20032;-45
2022/06/03 01:34:08;;;;;;;3.67;2.03;;;11.50;99.90;;;;;;5084586;28;20507;-45
2022/06/03 01:36:54;;;;;;;2.60;2.40;;;11.40;99.90;;;;;;5074307;28;20464;-45
2022/06/03 01:39:48;;;;;;;3.22;2.17;;;11.40;99.90;;;;;;5074524;28;20048;-45
2022/06/03 01:42:32;;;;;;;5.43;2.63;;;11.40;99.90;;;;;;5083763;28;20089;-45
2022/06/03 01:45:19;;;;;;;5.32;2.42;;;11.40;99.90;;;;;;5087801;28;20044;-45
2022/06/03 01:48:00;;;;;;;6.10;2.20;;;11.30;99.90;;;;;;5076737;28;20102;-44
2022/06/03 01:50:47;;;;;;;5.30;2.92;;;11.30;99.90;;;;;;5073336;28;20052;-45
2022/06/03 01:53:34;;;;;;;5.13;2.72;;;11.30;99.90;;;;;;5087033;28;20035;-45
2022/06/03 01:56:00;;;;;;;;;;;11.30;99.90;;;;;;5079495;28;20045;-44
2022/06/03 01:58:48;;;;;;;6.70;2.40;;;11.30;99.90;;;;;;5070381;28;20277;-45
2022/06/03 02:01:46;;;;;;;3.05;2.75;;;11.30;99.90;;;;;;5073875;28;20045;-48
2022/06/03 02:04:32;;;;;;;5.05;2.35;;;11.20;99.90;;;;;;5073398;28;20126;-44
2022/06/03 02:07:22;;;;;;;5.18;2.25;;;11.30;99.90;;;;;;5072400;28;20107;-44
2022/06/03 02:10:25;;;;;;;5.40;2.60;;;11.20;99.90;;;;;;5073594;28;20511;-45
2022/06/03 02:13:19;;;;;;;3.05;2.28;;;11.20;99.90;;;;;;5073492;28;20036;-45
2022/06/03 02:16:12;;;;;;;4.13;2.88;;;11.20;99.90;;;;;;5073740;28;20055;-44
2022/06/03 02:19:07;;;;;;;2.92;2.45;;;11.20;99.90;;;;;;5073758;28;20048;-45
2022/06/03 02:22:16;;;;;;;5.05;2.70;;;11.10;99.90;;;;;;5073306;28;20071;-45
2022/06/03 02:25:15;;;;;;;4.78;3.10;;;11.10;99.90;;;;;;5050446;28;20579;-45
2022/06/03 02:27:59;;;;;;;4.85;2.65;;;11.00;99.90;;;;;;5075937;28;20132;-44
2022/06/03 02:30:43;;;;;;;4.72;2.83;;;11.00;99.90;;;;;;5093791;28;20508;-45
2022/06/03 02:33:17;;;;;;;5.13;3.72;;;11.00;99.90;;;;;;5090167;28;20032;-44
2022/06/03 02:36:11;;;;;;;3.50;3.00;;;11.00;99.90;;;;;;5073376;28;20037;-44
2022/06/03 02:38:54;;;;;;;5.25;2.78;;;11.00;99.90;;;;;;5073359;28;20386;-45
2022/06/03 02:41:48;;;;;;;7.68;3.05;;;11.00;99.90;;;;;;5072974;28;20040;-45
2022/06/03 02:44:33;;;;;;;6.30;2.92;;;10.90;99.90;;;;;;5078257;28;20443;-44
2022/06/03 02:47:32;;;;;;;10.27;3.53;;;10.90;99.90;;;;;;5093011;28;20036;-45
2022/06/03 02:50:13;;;;;;;4.53;3.58;;;10.90;99.90;;;;;;5091818;28;20036;-44
2022/06/03 02:53:17;;;;;;;5.75;3.58;;;10.90;99.90;;;;;;5089248;28;20090;-44
2022/06/03 02:56:23;;;;;;;8.30;4.05;;;10.90;99.90;;;;;;5076579;28;20066;-45
2022/06/03 02:59:12;;;;;;;3.58;3.25;;;10.80;99.90;;;;;;5084895;28;20040;-44
2022/06/03 03:02:15;;;;;;;4.65;3.17;;;10.80;99.90;;;;;;5070930;28;20044;-45
2022/06/03 03:04:57;;;;;;;7.47;4.13;;;10.80;99.90;;;;;;5074977;28;20413;-44
2022/06/03 03:07:40;;;;;;;3.33;3.03;;;10.70;99.90;;;;;;5093010;28;20059;-44
2022/06/03 03:10:14;;;;;;;10.98;3.17;;;10.70;99.90;;;;;;5092599;28;20577;-45
2022/06/03 03:12:42;;;;;;;5.70;4.22;;;10.70;99.90;;;;;;5092324;28;20051;-47
2022/06/03 03:15:32;;;;;;;6.07;3.78;;;10.70;99.90;;;;;;5088064;28;20043;-45
2022/06/03 03:18:37;;;;;;;5.97;4.00;;;10.70;99.90;;;;;;5072204;28;20036;-45
2022/06/03 03:21:14;;;;;;;3.50;3.20;;;10.60;99.90;;;;;;5072673;28;20055;-45
2022/06/03 03:23:46;;;;;;;5.53;3.90;;;10.60;99.90;;;;;;5077988;28;20044;-44
2022/06/03 03:26:27;;;;;;;5.57;4.40;;;10.60;99.90;;;;;;5073815;28;20098;-44
2022/06/03 03:29:14;;;;;;;5.95;3.67;;;10.60;99.90;;;;;;5072320;28;20097;-45
2022/06/03 03:31:40;;;;;;;4.53;3.90;;;10.60;99.90;;;;;;5072025;28;20039;-45
2022/06/03 03:34:27;;;;;;;6.60;3.80;;;10.50;99.90;;;;;;5071643;28;20044;-45
2022/06/03 03:37:30;;;;;;;5.35;4.07;;;10.50;99.90;;;;;;5073212;28;20238;-45
2022/06/03 03:40:02;;;;;;;7.78;4.25;;;10.50;99.90;;;;;;5072118;28;20070;-45
2022/06/03 03:43:09;;;;;;;10.48;4.95;;;10.50;99.90;;;;;;5071404;28;20421;-44
2022/06/03 03:46:00;;;;;;;9.98;4.50;;;10.50;99.90;;;;;;5071953;28;20343;-45
2022/06/03 03:48:32;;;;;;;7.45;5.18;;;10.50;99.90;;;;;;5072667;28;20413;-45
2022/06/03 03:51:16;;;;;;;5.18;4.28;;;10.50;99.90;;;;;;5084985;28;20447;-47
2022/06/03 03:54:18;;;;;;;5.43;4.85;;;10.50;99.90;;;;;;5090980;28;20467;-44
2022/06/03 03:56:52;;;;;;;7.70;4.53;;;10.50;99.90;;;;;;5092162;28;20413;-45
2022/06/03 03:59:27;;;;;;;5.68;5.00;;;10.50;99.90;;;;;;5072444;28;20040;-45
2022/06/03 04:02:34;;;;;;;8.05;5.28;;;10.50;99.90;;;;;;5070210;28;20122;-46
2022/06/03 04:05:17;;;;;;;5.13;4.25;;;10.50;99.90;;;;;;5077801;28;20044;-45
2022/06/03 04:07:55;;;;;;;10.82;5.85;;;10.50;99.90;;;;;;5082818;28;20036;-44
2022/06/03 04:10:45;;;;;;;9.13;5.63;;;10.50;99.90;;;;;;5071907;28;20517;-46
2022/06/03 04:13:20;;;;;;;11.50;6.32;;;10.60;99.90;;;;;;5070428;28;20051;-45
2022/06/03 04:16:12;;;;;;;8.98;5.00;;;10.60;99.90;;;;;;5071865;28;20041;-45
2022/06/03 04:19:09;;;;;;;13.48;6.20;;;10.60;99.90;;;;;;5076877;28;20059;-45
2022/06/03 04:22:13;;;;;;;7.95;5.40;;;10.60;99.90;;;;;;5070851;28;20068;-45
2022/06/03 04:24:57;;;;;;;9.13;5.70;;;10.60;99.90;;;;;;5089679;28;20409;-45
2022/06/03 04:27:47;;;;;;;13.30;5.55;;;10.60;99.90;;;;;;5090905;28;20036;-45
2022/06/03 04:30:50;;;;;;;11.57;6.07;;;10.60;99.90;;;;;;5090129;28;20047;-48
2022/06/03 04:33:18;;;;;;;9.75;5.20;;;10.60;99.90;;;;;;5081536;28;20468;-46
2022/06/03 04:36:11;;;;;;;10.73;5.63;;;10.70;99.90;;;;;;5069193;28;20041;-44
2022/06/03 04:38:49;;;;;;;9.93;6.72;;;10.70;99.90;;;;;;5071366;28;20117;-46
2022/06/03 04:41:47;;;;;;;7.78;5.68;;;10.80;99.90;;;;;;5070343;28;20736;-45
2022/06/03 04:44:44;;;;;;;5.68;5.18;;;10.80;99.90;;;;;;5069758;28;20045;-45
2022/06/03 04:47:44;;;;;;;7.93;5.53;;;10.90;99.90;;;;;;5070889;28;20044;-47
2022/06/03 04:50:45;;;;;;;8.30;6.13;;;10.90;99.90;;;;;;5070623;28;20072;-46
2022/06/03 04:54:01;;;;;;;7.65;5.20;;;11.00;99.90;;;;;;5069357;28;20094;-45
2022/06/03 04:57:03;;;;;;;8.25;5.93;;;11.00;99.90;;;;;;5070752;28;20041;-45
2022/06/03 05:00:05;;;;;;;10.60;5.95;;;11.10;99.90;;;;;;5080473;28;20462;-46
2022/06/03 05:02:52;;;;;;;8.57;5.45;;;11.20;99.90;;;;;;5090025;28;20043;-45
2022/06/03 05:05:18;;;;;;;;;;;11.30;99.90;;;;;;5089620;28;20040;-45
2022/06/03 05:08:11;;;;;;;8.10;5.55;;;11.40;99.90;;;;;;5090814;28;20305;-45
2022/06/03 05:11:04;;;;;;;8.40;5.57;;;11.40;99.90;;;;;;5087365;28;20508;-46
2022/06/03 05:13:50;;;;;;;4.97;4.50;;;11.50;99.90;;;;;;5080724;28;20048;-46
2022/06/03 05:16:44;;;;;;;9.77;4.65;;;11.60;99.90;;;;;;5077806;28;20044;-45
2022/06/03 05:19:21;;;;;;;6.78;4.60;;;11.70;99.90;;;;;;5081375;28;20036;-45
2022/06/03 05:22:10;;;;;;;6.00;5.20;;;11.80;99.90;;;;;;5069830;28;20051;-45
2022/06/03 05:25:02;;;;;;;7.63;4.55;;;11.90;99.90;;;;;;5069537;28;20049;-45
2022/06/03 05:27:56;;;;;;;5.07;4.35;;;12.00;99.90;;;;;;5069169;28;20052;-45
2022/06/03 05:30:22;;;;;;;11.63;4.75;;;12.10;99.90;;;;;;5070348;28;20040;-44
2022/06/03 05:32:53;;;;;;;4.37;3.83;;;12.20;99.90;;;;;;5074733;28;20447;-46
2022/06/03 05:35:24;;;;;;;11.15;5.30;;;12.30;99.90;;;;;;5074830;28;20289;-45
2022/06/03 05:38:12;;;;;;;6.93;4.72;;;12.40;99.90;;;;;;5088580;28;20036;-44
2022/06/03 05:44:24;;;;;;;8.32;3.72;;;12.50;99.90;;;;;;5070363;28;20501;-45
2022/06/03 05:46:58;;;;;;;6.55;3.92;;;12.60;99.90;;;;;;5081833;28;20041;-45
2022/06/03 05:49:31;;;;;;;9.10;3.80;;;12.70;99.90;;;;;;5079700;28;20039;-45
2022/06/03 05:52:16;;;;;;;10.77;4.38;;;12.80;99.90;;;;;;5069478;28;20041;-45
2022/06/03 05:55:16;;;;;;;9.40;4.03;;;12.80;99.90;;;;;;5072645;28;20174;-45
2022/06/03 05:58:05;;;;;;;5.65;4.10;;;12.90;99.90;;;;;;5073335;28;20474;-46
2022/06/03 06:00:58;;;;;;;9.85;4.25;;;13.00;99.90;;;;;;5069980;28;20036;-45
2022/06/03 06:03:32;;;;;;;7.25;4.10;;;13.10;99.90;;;;;;5068319;28;20044;-46
2022/06/03 06:06:15;;;;;;;6.05;4.03;;;13.20;99.90;;;;;;5088635;28;20047;-45
2022/06/03 06:08:52;;;;;;;3.45;3.10;;;13.40;99.90;;;;;;5087704;28;20150;-45
2022/06/03 06:11:55;;;;;;;4.82;3.80;;;13.40;99.90;;;;;;5076795;28;20039;-45
2022/06/03 06:14:47;;;;;;;5.13;3.88;;;13.50;99.90;;;;;;5085964;28;20032;-45
2022/06/03 06:17:51;;;;;;;6.35;4.22;;;13.60;99.90;;;;;;5070192;28;20162;-45
2022/06/03 06:20:31;;;;;;;7.68;3.08;;;13.70;99.90;;;;;;5073073;28;20036;-46
2022/06/03 06:23:04;;;;;;;10.23;3.58;;;13.70;99.90;;;;;;5081706;28;20456;-45
2022/06/03 06:25:39;;;;;;;3.65;3.17;;;13.90;99.90;;;;;;5079616;28;20040;-45
2022/06/03 06:29:03;;;;;;;7.38;2.85;;;14.00;99.90;;;;;;5083274;28;20028;-44
2022/06/03 06:31:35;;;;;;;6.05;4.28;;;14.10;99.90;;;;;;5074020;28;20028;-45
2022/06/03 06:34:34;;;;;;;6.25;3.30;;;14.20;99.90;;;;;;5086733;28;20040;-45
2022/06/03 06:37:26;;;;;;;6.85;3.58;;;14.30;99.90;;;;;;5070544;28;20036;-45
2022/06/03 06:40:05;;;;;;;5.63;2.50;;;14.40;99.90;;;;;;5081351;28;20036;-45
2022/06/03 06:42:46;;;;;;;4.60;2.83;;;14.50;99.90;;;;;;5078476;28;20036;-45
2022/06/03 06:45:43;;;;;;;8.35;3.15;;;14.60;99.90;;;;;;5069386;28;20044;-46
2022/06/03 06:48:11;;;;;;;4.57;2.55;;;14.70;99.90;;;;;;5073862;28;20068;-46
2022/06/03 06:51:13;;;;;;;6.60;3.30;;;14.80;99.90;;;;;;5079699;28;20120;-46
2022/06/03 06:53:47;;;;;;;9.63;3.63;;;14.90;99.90;;;;;;5077281;28;20047;-46
2022/06/03 06:56:28;;;;;;;5.72;3.05;;;14.90;99.90;;;;;;5093053;28;20040;-45
2022/06/03 06:59:06;;;;;;;11.30;3.10;;;15.10;99.90;;;;;;5084404;28;20401;-45
2022/06/03 07:01:44;;;;;;;6.00;3.28;;;15.10;99.90;;;;;;5072245;28;20517;-46
2022/06/03 07:04:16;;;;;;;7.38;3.13;;;15.20;99.90;;;;;;5088686;28;20040;-46
2022/06/03 07:06:46;;;;;;;9.75;2.95;;;15.30;99.90;;;;;;5085456;28;20043;-46
2022/06/03 07:09:21;;;;;;;7.32;3.10;;;15.40;99.90;;;;;;5088618;28;20032;-45
2022/06/03 07:12:05;;;;;;;4.10;2.55;;;15.50;99.90;;;;;;5074850;28;20037;-45
2022/06/03 07:14:50;;;;;;;5.57;2.72;;;15.60;99.90;;;;;;5085709;28;20040;-46
2022/06/03 07:20:56;;;;;;;7.22;2.67;;;15.80;99.90;;;;;;5074793;28;20051;-45
2022/06/03 07:23:34;;;;;;;6.93;2.72;;;15.90;99.90;;;;;;5069366;28;20041;-46
2022/06/03 07:26:13;;;;;;;4.65;2.70;;;15.90;99.90;;;;;;5071043;28;20047;-46
2022/06/03 07:28:54;;;;;;;4.03;2.60;;;16.10;99.90;;;;;;5072736;28;20041;-46
2022/06/03 07:31:34;;;;;;;8.10;3.58;;;16.10;99.90;;;;;;5072178;28;20090;-46
2022/06/03 07:34:14;;;;;;;7.85;2.40;;;16.20;99.90;;;;;;5072279;28;20128;-45
2022/06/03 07:37:02;;;;;;;8.98;2.17;;;16.30;99.90;;;;;;5090273;28;20032;-46
2022/06/03 07:39:43;;;;;;;7.32;3.30;;;16.40;99.90;;;;;;5091007;28;20094;-46
2022/06/03 07:42:43;;;;;;;2.45;2.03;;;16.50;99.90;;;;;;5075557;28;20048;-46
2022/06/03 07:45:36;;;;;;;7.57;3.00;;;16.50;99.90;;;;;;5071574;28;20078;-45
2022/06/03 07:48:09;;;;;;;7.60;2.65;;;16.70;99.60;;;;;;5071631;28;20462;-46
2022/06/03 07:50:42;;;;;;;5.97;2.05;;;16.70;99.80;;;;;;5073125;28;20071;-46
2022/06/03 07:53:26;;;;;;;3.35;2.28;;;16.80;99.60;;;;;;5070549;28;20119;-46
2022/06/03 07:55:56;;;;;;;3.85;2.00;;;16.80;99.40;;;;;;5075882;28;20051;-46
2022/06/03 07:58:24;;;;;;;6.30;2.22;;;16.90;99.20;;;;;;5082826;28;20113;-45
2022/06/03 08:00:51;;;;;;;4.65;2.83;;;17.00;99.20;;;;;;5081001;28;20044;-45
2022/06/03 08:03:26;;;;;;;21.80;3.60;;;17.10;99.40;;;;;;5075940;28;20394;-45
2022/06/03 08:06:02;;;;;;;4.50;2.47;;;17.10;99.40;;;;;;5086328;28;20036;-45
2022/06/03 08:11:17;;;;;;;;;;;17.30;99.20;;;;;;5090551;28;20046;-45
2022/06/03 08:13:44;;;;;;;6.38;1.88;;;17.50;99.30;;;;;;5072978;28;19916;-45
2022/06/03 08:16:33;;;;;;;16.77;2.50;;;17.50;99.10;;;;;;5072181;28;20036;-45
2022/06/03 08:19:21;;;;;;;2.42;2.22;;;17.60;98.50;;;;;;5082722;28;20075;-44
2022/06/03 08:21:53;;;;;;;2.28;2.08;;;17.70;98.70;;;;;;5079436;28;20464;-46
2022/06/03 08:24:22;;;;;;;5.45;3.03;;;17.80;98.50;;;;;;5070312;28;20455;-45
2022/06/03 08:26:52;;;;;;;4.43;2.20;;;17.90;98.50;;;;;;5074256;28;20146;-47
2022/06/03 08:29:27;;;;;;;3.13;1.63;;;17.90;97.90;;;;;;5085059;28;20039;-45
2022/06/03 08:31:56;;;;;;;3.97;1.65;;;18.00;97.00;;;;;;5082789;28;20036;-46
2022/06/03 08:34:26;;;;;;;6.10;1.65;;;18.10;96.90;;;;;;5072686;28;20044;-45
2022/06/03 08:36:54;;;;;;;5.47;1.95;;;18.10;95.60;;;;;;5076601;28;20046;-47
2022/06/03 08:39:24;;;;;;;6.47;1.30;;;18.20;96.50;;;;;;5078419;28;20047;-45
2022/06/03 08:41:58;;;;;;;3.40;1.90;;;18.30;97.00;;;;;;5088234;28;20044;-45
2022/06/03 08:44:45;;;;;;;3.85;1.77;;;18.30;96.00;;;;;;5090474;28;20512;-45
2022/06/03 08:47:22;;;;;;;;;;;18.40;96.10;;;;;;5091795;28;20485;-47
2022/06/03 08:50:20;;;;;;;5.13;2.15;;;18.50;95.00;;;;;;5090888;28;20300;-45
2022/06/03 08:52:56;;;;;;;3.25;1.83;;;18.50;95.30;;;;;;5089860;28;20508;-46
2022/06/03 08:55:38;;;;;;;3.30;2.08;;;18.50;95.80;;;;;;5091054;28;20051;-45
2022/06/03 08:58:27;;;;;;;2.90;2.17;;;18.60;95.80;;;;;;5090841;28;20051;-46
2022/06/03 09:01:08;;;;;;;4.05;2.03;;;18.70;95.50;;;;;;5091159;28;20475;-45
2022/06/03 09:04:04;;;;;;;2.65;2.08;;;18.70;94.80;;;;;;5089569;28;20409;-46
2022/06/03 09:07:03;;;;;;;3.13;1.95;;;18.80;95.40;;;;;;5071610;28;20056;-45
2022/06/03 09:09:57;;;;;;;3.63;1.95;;;19.00;94.90;;;;;;5090123;28;20051;-45
2022/06/03 09:12:28;;;;;;;6.47;2.85;;;19.10;93.80;;;;;;5090190;28;20070;-46
2022/06/03 09:14:56;;;;;;;5.05;1.90;;;19.10;94.30;;;;;;5089516;28;20439;-46
2022/06/03 09:17:59;;;;;;;3.10;1.42;;;19.20;94.60;;;;;;5090641;28;20046;-46
2022/06/03 09:20:26;;;;;;;4.32;1.95;;;19.30;94.50;;;;;;5090703;28;20036;-45
2022/06/03 09:22:59;;;;;;;2.75;1.98;;;19.40;94.20;;;;;;5089063;28;20079;-46
2022/06/03 09:25:25;;;;;;;2.92;1.85;;;19.40;94.10;;;;;;5090190;28;20040;-45
2022/06/03 09:27:51;;;;;;;6.45;2.25;;;19.40;92.90;;;;;;5090487;28;20397;-45
2022/06/03 09:30:28;;;;;;;4.65;1.60;;;19.50;93.10;;;;;;5090605;28;20127;-46
2022/06/03 09:32:56;;;;;;;3.63;1.50;;;19.50;93.30;;;;;;5088185;28;20036;-46
2022/06/03 09:35:23;;;;;;;2.67;1.40;;;19.60;91.80;;;;;;5071159;28;20059;-46
2022/06/03 09:37:53;;;;;;;3.42;1.90;;;19.60;92.60;;;;;;5082263;28;20043;-45
2022/06/03 09:40:22;;;;;;;2.50;1.88;;;19.60;92.40;;;;;;5076494;28;20075;-46
2022/06/03 09:42:59;;;;;;;2.13;1.92;;;19.70;92.00;;;;;;5071328;28;20041;-45
2022/06/03 09:45:26;;;;;;;7.15;2.35;;;19.70;92.40;;;;;;5079568;28;20115;-46
2022/06/03 09:47:52;;;;;;;3.50;1.83;;;19.80;91.50;;;;;;5071461;28;20439;-47
2022/06/03 09:50:21;;;;;;;2.38;1.77;;;19.90;91.70;;;;;;5084393;28;20075;-47
2022/06/03 09:52:48;;;;;;;2.47;1.30;;;20.00;92.20;;;;;;5078524;28;20059;-45
2022/06/03 09:55:26;;;;;;;3.72;1.77;;;20.10;91.40;;;;;;5085705;28;20041;-46
2022/06/03 09:57:54;;;;;;;3.17;1.70;;;20.10;92.10;;;;;;5090650;28;20489;-46
2022/06/03 10:00:23;;;;;;;4.43;1.88;;;20.20;91.20;;;;;;5070665;28;20048;-45
2022/06/03 10:02:49;;;;;;;2.33;1.25;;;20.20;90.60;;;;;;5076741;28;20032;-45
2022/06/03 10:05:17;;;;;;;2.20;1.20;;;20.30;90.50;;;;;;5075951;28;20041;-45
2022/06/03 10:07:44;;;;;;;4.05;1.50;;;20.40;90.40;;;;;;5072966;28;20102;-45
2022/06/03 10:13:00;;;;;;;3.63;1.58;;;20.40;90.40;;;;;;5070810;28;20494;-46
2022/06/03 10:15:38;;;;;;;2.90;1.38;;;20.40;90.30;;;;;;5078986;28;20044;-47
2022/06/03 10:18:13;;;;;;;2.70;1.70;;;20.50;90.00;;;;;;5087550;28;20508;-46
2022/06/03 10:20:39;;;;;;;2.50;1.63;;;20.60;90.10;;;;;;5079322;28;20497;-46
2022/06/03 10:23:08;;;;;;;4.07;1.52;;;20.70;87.00;;;;;;5071979;28;20083;-46
2022/06/03 10:25:39;;;;;;;4.40;1.20;;;20.80;89.80;;;;;;5083741;28;20396;-46
2022/06/03 10:28:07;;;;;;;0.70;0.50;;;20.90;81.70;;;;;;5088549;28;20393;-46
2022/06/03 10:30:36;;;;;;;2.35;1.08;;;20.90;82.20;;;;;;5077792;28;20066;-45
2022/06/03 10:33:03;;;;;;;2.13;1.85;;;20.90;84.90;;;;;;5088044;28;20076;-46
2022/06/03 10:35:34;;;;;;;3.13;1.48;;;21.00;83.70;;;;;;5081148;28;20396;-46
2022/06/03 10:38:03;;;;;;;4.88;1.35;;;21.00;83.60;;;;;;5088378;28;20039;-46
2022/06/03 10:40:31;;;;;;;3.15;1.35;;;21.00;85.70;;;;;;5078495;28;20575;-45
2022/06/03 10:43:01;;;;;;;2.20;1.00;;;21.10;85.50;;;;;;5079170;28;20400;-47
2022/06/03 10:45:32;;;;;;;1.48;1.15;;;21.20;84.00;;;;;;5090346;28;20446;-45
2022/06/03 10:47:58;;;;;;;2.47;1.85;;;21.20;81.40;;;;;;5073776;28;20051;-46
2022/06/03 10:50:30;;;;;;;1.05;0.90;;;21.20;81.70;;;;;;5078455;28;20381;-46
2022/06/03 11:01:45;;;;;;;3.38;1.40;;;21.40;80.80;;;;;;5072551;28;20040;-47
2022/06/03 11:04:28;;;;;;;7.00;1.30;;;21.40;79.30;;;;;;5084164;28;20028;-46
2022/06/03 11:06:54;;;;;;;2.55;1.00;;;21.50;80.60;;;;;;5090071;28;20397;-47
2022/06/03 11:09:22;;;;;;;3.03;1.45;;;21.50;79.80;;;;;;5074589;28;20123;-46
2022/06/03 11:11:52;;;;;;;1.88;0.90;;;21.40;76.90;;;;;;5070924;28;20106;-46
2022/06/03 11:14:46;;;;;;;2.22;1.30;;;21.40;78.90;;;;;;5083831;28;20126;-46
2022/06/03 11:17:31;;;;;;;3.97;1.50;;;21.50;79.00;;;;;;5089185;28;20111;-46
2022/06/03 11:19:58;;;;;;;6.67;1.00;;;21.50;76.00;;;;;;5084525;28;20493;-46
2022/06/03 11:22:29;;;;;;;;;;;21.50;78.30;;;;;;5091411;28;20365;-46
2022/06/03 11:25:21;;;;;;;3.25;0.90;;;21.60;77.60;;;;;;5082491;28;19924;-46
2022/06/03 11:28:02;;;;;;;3.10;1.08;;;21.60;77.10;;;;;;5085585;28;20028;-47
2022/06/03 11:30:39;;;;;;;2.67;1.50;;;21.70;76.70;;;;;;5084938;28;20032;-47
2022/06/03 11:33:08;;;;;;;;;;;21.70;77.80;;;;;;5073038;28;20051;-46
2022/06/03 11:35:45;;;;;;;1.63;0.80;;;21.70;74.20;;;;;;5089706;28;19966;-48
2022/06/03 11:38:18;;;;;;;1.73;0.60;;;21.60;74.50;;;;;;5089522;28;20047;-46
2022/06/03 11:40:52;;;;;;;2.40;0.68;;;21.70;76.70;;;;;;5084109;28;20111;-46
2022/06/03 11:43:24;;;;;;;2.45;0.80;;;21.70;77.80;;;;;;5078072;28;20032;-47
2022/06/03 11:45:56;;;;;;;4.75;1.15;;;21.80;77.20;;;;;;5083622;28;20510;-46
2022/06/03 11:48:32;;;;;;;1.35;0.77;;;21.90;77.00;;;;;;5088807;28;20105;-46
2022/06/03 11:50:59;;;;;;;1.90;0.77;;;22.00;73.70;;;;;;5077176;28;20038;-47
2022/06/03 11:53:28;;;;;;;3.17;0.70;;;22.00;74.50;;;;;;5079979;28;20137;-48
2022/06/03 11:56:00;;;;;;;4.18;0.80;;;22.00;75.10;;;;;;5080818;28;20403;-46
2022/06/03 11:58:55;;;;;;;2.90;1.20;;;22.10;74.70;;;;;;5081905;28;20051;-47
2022/06/03 12:01:43;;;;;;;4.78;1.42;;;22.10;73.40;;;;;;5085950;28;20488;-46
2022/06/03 12:04:17;;;;;;;3.10;0.95;;;22.20;73.80;;;;;;5070208;28;20124;-46
2022/06/03 12:07:29;;;;;;;1.67;0.90;;;22.20;75.70;;;;;;5071051;28;20040;-46
2022/06/03 12:10:13;;;;;;;1.30;0.90;;;22.20;73.40;;;;;;5079426;28;20039;-47
2022/06/03 12:15:35;;;;;;;2.20;0.47;;;22.30;70.20;;;;;;5071106;28;20037;-46
2022/06/03 12:18:06;;;;;;;2.08;0.70;;;22.20;72.90;;;;;;5080600;28;20457;-47
2022/06/03 12:20:32;;;;;;;2.40;0.55;;;22.30;73.00;;;;;;5074483;28;20036;-46
2022/06/03 12:23:17;;;;;;;;;;;22.40;73.50;;;;;;5077361;28;20523;-47
2022/06/03 12:26:08;;;;;;;4.40;0.85;;;22.40;69.70;;;;;;5088964;28;19922;-47
2022/06/03 12:28:36;;;;;;;2.25;0.65;;;22.40;71.20;;;;;;5076918;28;20477;-46
2022/06/03 12:31:20;;;;;;;1.30;0.50;;;22.40;70.70;;;;;;5086726;28;20059;-47
2022/06/03 12:33:58;;;;;;;1.35;0.52;;;22.50;71.10;;;;;;5077839;28;20432;-46
2022/06/03 12:36:34;;;;;;;4.28;0.77;;;22.50;69.10;;;;;;5076418;28;20161;-47
2022/06/03 12:39:04;;;;;;;3.97;0.50;;;22.60;70.80;;;;;;5083133;28;20119;-47
2022/06/03 12:41:45;;;;;;;1.05;0.70;;;22.60;69.00;;;;;;5080229;28;20036;-46
2022/06/03 12:44:32;;;;;;;4.32;0.63;;;22.60;68.30;;;;;;5079474;28;20382;-46
2022/06/03 12:47:22;;;;;;;0.77;0.60;;;22.80;68.80;;;;;;5083996;28;20614;-47
2022/06/03 12:49:50;;;;;;;1.08;0.77;;;22.80;67.60;;;;;;5077788;28;20105;-46
2022/06/03 12:52:21;;;;;;;1.83;0.68;;;22.90;69.40;;;;;;5086084;28;20541;-47
2022/06/03 12:55:05;;;;;;;4.40;0.60;;;22.90;68.00;;;;;;5072145;28;20505;-46
2022/06/03 12:57:57;;;;;;;1.33;1.05;;;23.00;69.00;;;;;;5070771;28;20206;-47
2022/06/03 13:00:35;;;;;;;2.05;0.57;;;23.00;68.00;;;;;;5087611;28;20051;-46
2022/06/03 13:03:04;;;;;;;4.88;0.50;;;23.10;65.70;;;;;;5085949;28;20044;-48
2022/06/03 13:05:47;;;;;;;1.55;0.45;;;23.10;66.50;;;;;;5088688;28;20032;-47
2022/06/03 13:08:27;;;;;;;2.60;0.45;;;23.10;68.40;;;;;;5071623;28;20032;-46
2022/06/03 13:10:55;;;;;;;2.67;1.05;;;23.10;62.90;;;;;;5080464;28;20036;-47
2022/06/03 13:14:07;;;;;;;1.52;0.40;;;23.00;61.50;;;;;;5084532;28;20100;-47
2022/06/03 13:16:35;;;;;;;0.90;0.50;;;23.00;65.70;;;;;;5067815;28;20076;-47
2022/06/03 13:19:18;;;;;;;1.85;0.45;;;23.00;65.00;;;;;;5072367;28;20346;-47
2022/06/03 13:21:59;;;;;;;2.90;0.63;;;23.00;66.60;;;;;;5086864;28;20101;-47
2022/06/03 13:24:33;;;;;;;2.00;0.50;;;23.00;65.10;;;;;;5086284;28;20058;-47
2022/06/03 13:27:06;;;;;;;2.58;0.82;;;23.10;64.70;;;;;;5068006;28;20068;-49
2022/06/03 13:29:50;;;;;;;0.65;0.43;;;23.00;65.20;;;;;;5069696;28;20397;-48
2022/06/03 13:32:40;;;;;;;1.02;0.60;;;23.00;67.40;;;;;;5077718;28;20041;-47
2022/06/03 13:35:22;;;;;;;1.25;0.50;;;23.10;65.30;;;;;;5085334;28;20091;-47
2022/06/03 13:38:36;;;;;;;3.50;0.70;;;23.10;66.30;;;;;;5082401;28;20067;-47
2022/06/03 13:44:46;;;;;;;2.65;0.50;;;23.20;63.80;;;;;;5072251;28;20040;-47
2022/06/03 13:47:45;;;;;;;0.52;0.40;;;23.30;63.00;;;;;;5085488;28;20039;-47
2022/06/03 13:50:14;;;;;;;2.42;0.40;;;23.20;64.90;;;;;;5086301;28;20047;-48
2022/06/03 13:52:54;;;;;;;4.35;0.90;;;23.20;63.60;;;;;;5085193;28;20443;-47
2022/06/03 13:55:37;;;;;;;1.42;0.70;;;23.20;65.00;;;;;;5086545;28;20389;-46
2022/06/03 13:58:18;;;;;;;3.83;0.90;;;23.20;65.70;;;;;;5082661;28;20086;-48
2022/06/03 14:00:50;;;;;;;3.28;0.57;;;23.20;66.20;;;;;;5069059;28;20036;-47
2022/06/03 14:03:22;;;;;;;1.90;0.98;;;23.20;65.10;;;;;;5078277;28;20277;-46
2022/06/03 14:06:18;;;;;;;1.42;0.45;;;23.10;67.10;;;;;;5072273;28;20436;-47
2022/06/03 14:09:04;;;;;;;3.25;0.63;;;23.20;65.80;;;;;;5083576;28;20052;-48
2022/06/03 14:11:36;;;;;;;1.77;0.75;;;23.20;66.30;;;;;;5072592;28;20111;-46
2022/06/03 14:14:18;;;;;;;2.05;0.60;;;23.20;66.30;;;;;;5069199;28;20044;-47
2022/06/03 14:16:50;;;;;;;9.80;0.90;;;23.30;66.30;;;;;;5068751;28;20048;-46
2022/06/03 14:19:35;;;;;;;2.92;0.65;;;23.30;67.20;;;;;;5078410;28;20039;-46
2022/06/03 14:22:22;;;;;;;3.10;0.60;;;23.30;63.90;;;;;;5078817;28;20040;-48
2022/06/03 14:25:12;;;;;;;2.67;0.50;;;23.30;66.60;;;;;;5085677;28;20118;-47
2022/06/03 14:27:55;;;;;;;1.52;0.40;;;23.20;64.50;;;;;;5072471;28;20504;-48
2022/06/03 14:30:45;;;;;;;2.00;0.60;;;23.30;67.30;;;;;;5067772;28;20401;-47